sensor_id;sensor_type;location;lat;lon;timestamp;pressure;altitude;pressure_sealevel;temperature;humidity
49611;BME280;35515;48.766;9.176;2023-12-20T00:00:25;98358.38;;;6.27;100.00
49611;BME280;35515;48.766;9.176;2023-12-20T00:02:52;98348.19;;;6.37;100.00
49611;BME280;35515;48.766;9.176;2023-12-20T00:05:19;98334.19;;;6.27;100.00
49611;BME280;35515;48.766;9.176;2023-12-20T00:07:45;98335.03;;;6.42;100.00
49611;BME280;35515;48.766;9.176;2023-12-20T00:10:12;98321.13;;;6.39;100.00
49611;BME280;35515;48.766;9.176;2023-12-20T00:12:40;98322.97;;;6.53;100.00
49611;BME280;35515;48.766;9.176;2023-12-20T00:15:07;98329.31;;;6.45;100.00
49611;BME280;35515;48.766;9.176;2023-12-20T00:17:34;98330.22;;;6.52;100.00
49611;BME280;35515;48.766;9.176;2023-12-20T00:20:00;98330.03;;;6.39;100.00
49611;BME280;35515;48.766;9.176;2023-12-20T00:22:27;98316.84;;;6.29;100.00
49611;BME280;35515;48.766;9.176;2023-12-20T00:24:53;98319.56;;;6.44;100.00
49611;BME280;35515;48.766;9.176;2023-12-20T00:27:20;98316.94;;;6.36;100.00
49611;BME280;35515;48.766;9.176;2023-12-20T00:29:48;98315.56;;;6.40;100.00
49611;BME280;35515;48.766;9.176;2023-12-20T00:32:15;98325.09;;;6.28;100.00
49611;BME280;35515;48.766;9.176;2023-12-20T00:34:42;98311.47;;;6.06;100.00
49611;BME280;35515;48.766;9.176;2023-12-20T00:37:09;98314.75;;;6.16;100.00
49611;BME280;35515;48.766;9.176;2023-12-20T00:39:35;98316.44;;;6.17;100.00
49611;BME280;35515;48.766;9.176;2023-12-20T00:42:02;98310.69;;;6.21;100.00
49611;BME280;35515;48.766;9.176;2023-12-20T00:44:28;98305.88;;;6.31;100.00
49611;BME280;35515;48.766;9.176;2023-12-20T00:46:57;98315.63;;;6.32;100.00
49611;BME280;35515;48.766;9.176;2023-12-20T00:49:23;98311.81;;;6.26;100.00
49611;BME280;35515;48.766;9.176;2023-12-20T00:51:50;98306.19;;;6.13;100.00
49611;BME280;35515;48.766;9.176;2023-12-20T00:54:17;98316.53;;;6.24;100.00
49611;BME280;35515;48.766;9.176;2023-12-20T00:56:44;98308.38;;;6.17;100.00
49611;BME280;35515;48.766;9.176;2023-12-20T00:59:10;98299.41;;;6.02;100.00
49611;BME280;35515;48.766;9.176;2023-12-20T01:01:37;98307.25;;;6.12;100.00
49611;BME280;35515;48.766;9.176;2023-12-20T01:04:06;98305.66;;;6.17;100.00
49611;BME280;35515;48.766;9.176;2023-12-20T01:06:32;98313.81;;;6.09;100.00
49611;BME280;35515;48.766;9.176;2023-12-20T01:08:59;98313.53;;;6.04;100.00
49611;BME280;35515;48.766;9.176;2023-12-20T01:11:25;98320.56;;;6.05;100.00
49611;BME280;35515;48.766;9.176;2023-12-20T01:13:52;98322.59;;;6.03;100.00
49611;BME280;35515;48.766;9.176;2023-12-20T01:16:18;98325.09;;;6.05;100.00
49611;BME280;35515;48.766;9.176;2023-12-20T01:18:45;98323.41;;;6.03;100.00
49611;BME280;35515;48.766;9.176;2023-12-20T01:21:13;98331.34;;;6.05;100.00
49611;BME280;35515;48.766;9.176;2023-12-20T01:23:39;98333.06;;;5.98;100.00
49611;BME280;35515;48.766;9.176;2023-12-20T01:26:06;98324.72;;;6.08;100.00
49611;BME280;35515;48.766;9.176;2023-12-20T01:28:32;98322.53;;;6.11;100.00
49611;BME280;35515;48.766;9.176;2023-12-20T01:30:59;98325.97;;;6.05;100.00
49611;BME280;35515;48.766;9.176;2023-12-20T01:33:25;98333.22;;;5.96;100.00
49611;BME280;35515;48.766;9.176;2023-12-20T01:35:52;98334.03;;;5.97;100.00
49611;BME280;35515;48.766;9.176;2023-12-20T01:38:19;98329.84;;;5.94;100.00
49611;BME280;35515;48.766;9.176;2023-12-20T01:40:46;98332.19;;;5.97;100.00
49611;BME280;35515;48.766;9.176;2023-12-20T01:43:13;98330.69;;;5.95;100.00
49611;BME280;35515;48.766;9.176;2023-12-20T01:45:39;98330.59;;;6.11;100.00
49611;BME280;35515;48.766;9.176;2023-12-20T01:48:07;98331.91;;;6.15;100.00
49611;BME280;35515;48.766;9.176;2023-12-20T01:50:35;98342.47;;;5.94;100.00
49611;BME280;35515;48.766;9.176;2023-12-20T01:53:02;98336.72;;;6.05;100.00
49611;BME280;35515;48.766;9.176;2023-12-20T01:55:33;98340.41;;;6.04;100.00
49611;BME280;35515;48.766;9.176;2023-12-20T01:58:01;98329.66;;;6.04;100.00
49611;BME280;35515;48.766;9.176;2023-12-20T02:00:27;98323.81;;;5.92;100.00
49611;BME280;35515;48.766;9.176;2023-12-20T02:02:55;98317.31;;;5.86;100.00
49611;BME280;35515;48.766;9.176;2023-12-20T02:05:22;98328.06;;;5.86;100.00
49611;BME280;35515;48.766;9.176;2023-12-20T02:07:48;98334.41;;;5.94;100.00
49611;BME280;35515;48.766;9.176;2023-12-20T02:10:15;98323.53;;;5.87;100.00
49611;BME280;35515;48.766;9.176;2023-12-20T02:12:43;98328.41;;;5.83;100.00
49611;BME280;35515;48.766;9.176;2023-12-20T02:15:10;98326.22;;;5.87;100.00
49611;BME280;35515;48.766;9.176;2023-12-20T02:17:38;98335.75;;;5.98;100.00
49611;BME280;35515;48.766;9.176;2023-12-20T02:20:06;98327.16;;;5.94;100.00
49611;BME280;35515;48.766;9.176;2023-12-20T02:22:34;98335.09;;;5.88;100.00
49611;BME280;35515;48.766;9.176;2023-12-20T02:25:00;98326.59;;;5.84;100.00
49611;BME280;35515;48.766;9.176;2023-12-20T02:27:27;98325.97;;;5.74;100.00
49611;BME280;35515;48.766;9.176;2023-12-20T02:29:55;98337.25;;;5.69;100.00
49611;BME280;35515;48.766;9.176;2023-12-20T02:32:21;98323.84;;;5.61;100.00
49611;BME280;35515;48.766;9.176;2023-12-20T02:34:51;98331.84;;;5.77;100.00
49611;BME280;35515;48.766;9.176;2023-12-20T02:37:17;98327.16;;;5.71;100.00
49611;BME280;35515;48.766;9.176;2023-12-20T02:39:45;98329.53;;;5.66;100.00
49611;BME280;35515;48.766;9.176;2023-12-20T02:42:12;98337.66;;;5.58;100.00
49611;BME280;35515;48.766;9.176;2023-12-20T02:44:38;98343.72;;;5.51;100.00
49611;BME280;35515;48.766;9.176;2023-12-20T02:47:05;98339.72;;;5.47;100.00
49611;BME280;35515;48.766;9.176;2023-12-20T02:49:31;98341.47;;;5.40;100.00
49611;BME280;35515;48.766;9.176;2023-12-20T02:51:58;98335.66;;;5.51;100.00
49611;BME280;35515;48.766;9.176;2023-12-20T02:54:25;98350.47;;;5.47;100.00
49611;BME280;35515;48.766;9.176;2023-12-20T02:56:52;98334.22;;;5.41;100.00
49611;BME280;35515;48.766;9.176;2023-12-20T02:59:19;98342.97;;;5.43;100.00
49611;BME280;35515;48.766;9.176;2023-12-20T03:01:46;98350.69;;;5.38;100.00
49611;BME280;35515;48.766;9.176;2023-12-20T03:04:12;98346.88;;;5.32;100.00
49611;BME280;35515;48.766;9.176;2023-12-20T03:06:39;98342.81;;;5.36;100.00
49611;BME280;35515;48.766;9.176;2023-12-20T03:09:05;98343.47;;;5.38;100.00
49611;BME280;35515;48.766;9.176;2023-12-20T03:11:32;98348.97;;;5.45;100.00
49611;BME280;35515;48.766;9.176;2023-12-20T03:14:00;98350.78;;;5.52;100.00
49611;BME280;35515;48.766;9.176;2023-12-20T03:16:27;98352.03;;;5.42;100.00
49611;BME280;35515;48.766;9.176;2023-12-20T03:18:53;98362.22;;;5.55;100.00
49611;BME280;35515;48.766;9.176;2023-12-20T03:21:20;98366.41;;;5.57;100.00
49611;BME280;35515;48.766;9.176;2023-12-20T03:23:46;98355.09;;;5.62;100.00
49611;BME280;35515;48.766;9.176;2023-12-20T03:26:13;98361.22;;;5.47;100.00
49611;BME280;35515;48.766;9.176;2023-12-20T03:28:39;98359.22;;;5.49;100.00
49611;BME280;35515;48.766;9.176;2023-12-20T03:31:09;98350.84;;;5.44;100.00
49611;BME280;35515;48.766;9.176;2023-12-20T03:33:35;98360.41;;;5.47;100.00
49611;BME280;35515;48.766;9.176;2023-12-20T03:36:02;98365.47;;;5.42;100.00
49611;BME280;35515;48.766;9.176;2023-12-20T03:38:29;98362.06;;;5.48;100.00
49611;BME280;35515;48.766;9.176;2023-12-20T03:40:55;98358.53;;;5.47;100.00
49611;BME280;35515;48.766;9.176;2023-12-20T03:43:22;98366.91;;;5.52;100.00
49611;BME280;35515;48.766;9.176;2023-12-20T03:45:48;98371.16;;;5.47;100.00
49611;BME280;35515;48.766;9.176;2023-12-20T03:48:15;98375.50;;;5.48;100.00
49611;BME280;35515;48.766;9.176;2023-12-20T03:50:41;98388.22;;;5.54;100.00
49611;BME280;35515;48.766;9.176;2023-12-20T03:53:08;98375.34;;;5.49;100.00
49611;BME280;35515;48.766;9.176;2023-12-20T03:55:35;98381.72;;;5.48;100.00
49611;BME280;35515;48.766;9.176;2023-12-20T03:58:02;98384.09;;;5.43;100.00
49611;BME280;35515;48.766;9.176;2023-12-20T04:00:29;98378.88;;;5.42;100.00
49611;BME280;35515;48.766;9.176;2023-12-20T04:02:55;98374.97;;;5.52;100.00
49611;BME280;35515;48.766;9.176;2023-12-20T04:05:23;98381.22;;;5.45;100.00
49611;BME280;35515;48.766;9.176;2023-12-20T04:07:49;98370.00;;;5.41;100.00
49611;BME280;35515;48.766;9.176;2023-12-20T04:10:16;98383.06;;;5.44;100.00
49611;BME280;35515;48.766;9.176;2023-12-20T04:12:43;98381.75;;;5.40;100.00
49611;BME280;35515;48.766;9.176;2023-12-20T04:15:09;98386.94;;;5.42;100.00
49611;BME280;35515;48.766;9.176;2023-12-20T04:17:37;98370.28;;;5.46;100.00
49611;BME280;35515;48.766;9.176;2023-12-20T04:20:04;98373.34;;;5.43;100.00
49611;BME280;35515;48.766;9.176;2023-12-20T04:22:32;98378.34;;;5.55;100.00
49611;BME280;35515;48.766;9.176;2023-12-20T04:25:02;98391.78;;;5.55;100.00
49611;BME280;35515;48.766;9.176;2023-12-20T04:27:28;98400.13;;;5.60;100.00
49611;BME280;35515;48.766;9.176;2023-12-20T04:29:55;98405.53;;;5.51;100.00
49611;BME280;35515;48.766;9.176;2023-12-20T04:32:21;98413.91;;;5.57;100.00
49611;BME280;35515;48.766;9.176;2023-12-20T04:34:48;98396.47;;;5.52;100.00
49611;BME280;35515;48.766;9.176;2023-12-20T04:37:14;98401.03;;;5.52;100.00
49611;BME280;35515;48.766;9.176;2023-12-20T04:39:42;98391.31;;;5.43;100.00
49611;BME280;35515;48.766;9.176;2023-12-20T04:42:09;98391.09;;;5.52;100.00
49611;BME280;35515;48.766;9.176;2023-12-20T04:44:35;98398.00;;;5.47;100.00
49611;BME280;35515;48.766;9.176;2023-12-20T04:47:02;98403.53;;;5.53;100.00
49611;BME280;35515;48.766;9.176;2023-12-20T04:49:29;98409.88;;;5.61;100.00
49611;BME280;35515;48.766;9.176;2023-12-20T04:51:55;98422.38;;;5.45;100.00
49611;BME280;35515;48.766;9.176;2023-12-20T04:54:22;98422.34;;;5.53;100.00
49611;BME280;35515;48.766;9.176;2023-12-20T04:56:50;98400.03;;;5.45;100.00
49611;BME280;35515;48.766;9.176;2023-12-20T04:59:17;98402.91;;;5.43;100.00
49611;BME280;35515;48.766;9.176;2023-12-20T05:01:43;98410.22;;;5.58;100.00
49611;BME280;35515;48.766;9.176;2023-12-20T05:04:10;98425.06;;;5.45;100.00
49611;BME280;35515;48.766;9.176;2023-12-20T05:06:36;98428.44;;;5.39;100.00
49611;BME280;35515;48.766;9.176;2023-12-20T05:09:03;98422.25;;;5.39;100.00
49611;BME280;35515;48.766;9.176;2023-12-20T05:11:29;98419.34;;;5.48;100.00
49611;BME280;35515;48.766;9.176;2023-12-20T05:13:57;98423.69;;;5.49;100.00
49611;BME280;35515;48.766;9.176;2023-12-20T05:16:24;98429.06;;;5.49;100.00
49611;BME280;35515;48.766;9.176;2023-12-20T05:18:51;98427.31;;;5.65;100.00
49611;BME280;35515;48.766;9.176;2023-12-20T05:21:17;98434.91;;;5.53;100.00
49611;BME280;35515;48.766;9.176;2023-12-20T05:23:44;98445.47;;;5.63;100.00
49611;BME280;35515;48.766;9.176;2023-12-20T05:26:11;98444.19;;;5.42;100.00
49611;BME280;35515;48.766;9.176;2023-12-20T05:28:37;98441.88;;;5.39;100.00
49611;BME280;35515;48.766;9.176;2023-12-20T05:31:05;98442.00;;;5.46;100.00
49611;BME280;35515;48.766;9.176;2023-12-20T05:33:32;98446.16;;;5.57;100.00
49611;BME280;35515;48.766;9.176;2023-12-20T05:35:58;98444.19;;;5.42;100.00
49611;BME280;35515;48.766;9.176;2023-12-20T05:38:25;98450.28;;;5.36;100.00
49611;BME280;35515;48.766;9.176;2023-12-20T05:40:52;98453.94;;;5.43;100.00
49611;BME280;35515;48.766;9.176;2023-12-20T05:43:18;98457.28;;;5.53;100.00
49611;BME280;35515;48.766;9.176;2023-12-20T05:45:45;98467.66;;;5.57;100.00
49611;BME280;35515;48.766;9.176;2023-12-20T05:48:13;98466.16;;;5.54;100.00
49611;BME280;35515;48.766;9.176;2023-12-20T05:50:39;98470.75;;;5.45;100.00
49611;BME280;35515;48.766;9.176;2023-12-20T05:53:05;98475.13;;;5.38;100.00
49611;BME280;35515;48.766;9.176;2023-12-20T05:55:32;98479.44;;;5.47;100.00
49611;BME280;35515;48.766;9.176;2023-12-20T05:57:59;98484.50;;;5.50;100.00
49611;BME280;35515;48.766;9.176;2023-12-20T06:00:26;98492.03;;;5.55;100.00
49611;BME280;35515;48.766;9.176;2023-12-20T06:02:52;98493.56;;;5.49;100.00
49611;BME280;35515;48.766;9.176;2023-12-20T06:05:20;98492.56;;;5.42;100.00
49611;BME280;35515;48.766;9.176;2023-12-20T06:07:47;98503.63;;;5.47;100.00
49611;BME280;35515;48.766;9.176;2023-12-20T06:10:16;98502.44;;;5.58;100.00
49611;BME280;35515;48.766;9.176;2023-12-20T06:12:42;98504.59;;;5.63;100.00
49611;BME280;35515;48.766;9.176;2023-12-20T06:15:09;98494.53;;;5.57;100.00
49611;BME280;35515;48.766;9.176;2023-12-20T06:17:36;98499.22;;;5.63;100.00
49611;BME280;35515;48.766;9.176;2023-12-20T06:20:03;98501.59;;;5.58;100.00
49611;BME280;35515;48.766;9.176;2023-12-20T06:22:34;98507.28;;;5.63;100.00
49611;BME280;35515;48.766;9.176;2023-12-20T06:25:01;98497.91;;;5.59;100.00
49611;BME280;35515;48.766;9.176;2023-12-20T06:27:28;98503.91;;;5.69;100.00
49611;BME280;35515;48.766;9.176;2023-12-20T06:29:54;98509.66;;;5.58;100.00
49611;BME280;35515;48.766;9.176;2023-12-20T06:32:21;98496.78;;;5.84;100.00
49611;BME280;35515;48.766;9.176;2023-12-20T06:34:48;98490.78;;;5.74;100.00
49611;BME280;35515;48.766;9.176;2023-12-20T06:37:15;98489.59;;;5.77;100.00
49611;BME280;35515;48.766;9.176;2023-12-20T06:39:43;98488.81;;;5.68;100.00
49611;BME280;35515;48.766;9.176;2023-12-20T06:42:09;98499.91;;;5.57;100.00
49611;BME280;35515;48.766;9.176;2023-12-20T06:44:36;98503.47;;;5.49;100.00
49611;BME280;35515;48.766;9.176;2023-12-20T06:47:03;98509.19;;;5.46;100.00
49611;BME280;35515;48.766;9.176;2023-12-20T06:49:29;98511.06;;;5.45;100.00
49611;BME280;35515;48.766;9.176;2023-12-20T06:51:56;98513.44;;;5.32;100.00
49611;BME280;35515;48.766;9.176;2023-12-20T06:54:22;98517.78;;;5.33;100.00
49611;BME280;35515;48.766;9.176;2023-12-20T06:56:50;98523.78;;;5.51;100.00
49611;BME280;35515;48.766;9.176;2023-12-20T06:59:17;98529.47;;;5.57;100.00
49611;BME280;35515;48.766;9.176;2023-12-20T07:01:47;98531.47;;;5.63;100.00
49611;BME280;35515;48.766;9.176;2023-12-20T07:04:14;98533.31;;;5.62;100.00
49611;BME280;35515;48.766;9.176;2023-12-20T07:06:41;98535.13;;;5.78;100.00
49611;BME280;35515;48.766;9.176;2023-12-20T07:09:08;98547.41;;;5.73;100.00
49611;BME280;35515;48.766;9.176;2023-12-20T07:11:35;98552.00;;;5.64;100.00
49611;BME280;35515;48.766;9.176;2023-12-20T07:14:03;98546.94;;;5.61;100.00
49611;BME280;35515;48.766;9.176;2023-12-20T07:16:29;98546.97;;;5.52;100.00
49611;BME280;35515;48.766;9.176;2023-12-20T07:18:56;98560.91;;;5.56;100.00
49611;BME280;35515;48.766;9.176;2023-12-20T07:21:23;98559.69;;;5.67;100.00
49611;BME280;35515;48.766;9.176;2023-12-20T07:23:49;98561.19;;;5.69;100.00
49611;BME280;35515;48.766;9.176;2023-12-20T07:26:17;98574.75;;;5.84;100.00
49611;BME280;35515;48.766;9.176;2023-12-20T07:28:44;98586.56;;;5.67;100.00
49611;BME280;35515;48.766;9.176;2023-12-20T07:31:12;98596.66;;;5.73;100.00
49611;BME280;35515;48.766;9.176;2023-12-20T07:33:39;98593.31;;;5.63;100.00
49611;BME280;35515;48.766;9.176;2023-12-20T07:36:06;98599.84;;;5.68;100.00
49611;BME280;35515;48.766;9.176;2023-12-20T07:38:32;98598.66;;;5.71;100.00
49611;BME280;35515;48.766;9.176;2023-12-20T07:40:59;98603.38;;;5.61;100.00
49611;BME280;35515;48.766;9.176;2023-12-20T07:43:25;98610.28;;;5.55;100.00
49611;BME280;35515;48.766;9.176;2023-12-20T07:45:52;98613.09;;;5.70;100.00
49611;BME280;35515;48.766;9.176;2023-12-20T07:48:20;98617.16;;;5.58;100.00
49611;BME280;35515;48.766;9.176;2023-12-20T07:50:46;98608.75;;;5.77;100.00
49611;BME280;35515;48.766;9.176;2023-12-20T07:53:13;98606.34;;;5.82;100.00
49611;BME280;35515;48.766;9.176;2023-12-20T07:55:39;98602.69;;;5.75;100.00
49611;BME280;35515;48.766;9.176;2023-12-20T07:58:06;98605.41;;;5.59;100.00
49611;BME280;35515;48.766;9.176;2023-12-20T08:00:32;98599.78;;;5.85;100.00
49611;BME280;35515;48.766;9.176;2023-12-20T08:02:59;98610.09;;;5.73;100.00
49611;BME280;35515;48.766;9.176;2023-12-20T08:05:30;98617.19;;;5.49;100.00
49611;BME280;35515;48.766;9.176;2023-12-20T08:07:56;98607.41;;;5.65;100.00
49611;BME280;35515;48.766;9.176;2023-12-20T08:10:23;98615.13;;;5.68;100.00
49611;BME280;35515;48.766;9.176;2023-12-20T08:12:50;98604.22;;;5.45;100.00
49611;BME280;35515;48.766;9.176;2023-12-20T08:15:16;98621.00;;;5.63;100.00
49611;BME280;35515;48.766;9.176;2023-12-20T08:17:43;98619.34;;;5.54;100.00
49611;BME280;35515;48.766;9.176;2023-12-20T08:20:10;98617.81;;;5.68;100.00
49611;BME280;35515;48.766;9.176;2023-12-20T08:22:38;98630.94;;;5.55;100.00
49611;BME280;35515;48.766;9.176;2023-12-20T08:25:05;98635.28;;;5.72;100.00
49611;BME280;35515;48.766;9.176;2023-12-20T08:27:31;98628.91;;;5.57;100.00
49611;BME280;35515;48.766;9.176;2023-12-20T08:29:59;98641.00;;;5.52;100.00
49611;BME280;35515;48.766;9.176;2023-12-20T08:32:25;98628.59;;;5.43;100.00
49611;BME280;35515;48.766;9.176;2023-12-20T08:34:52;98629.28;;;5.45;100.00
49611;BME280;35515;48.766;9.176;2023-12-20T08:37:18;98646.88;;;5.64;100.00
49611;BME280;35515;48.766;9.176;2023-12-20T08:39:46;98651.44;;;5.64;100.00
49611;BME280;35515;48.766;9.176;2023-12-20T08:42:13;98649.09;;;5.44;100.00
49611;BME280;35515;48.766;9.176;2023-12-20T08:44:39;98651.59;;;5.38;100.00
49611;BME280;35515;48.766;9.176;2023-12-20T08:47:06;98656.81;;;5.47;100.00
49611;BME280;35515;48.766;9.176;2023-12-20T08:49:32;98650.09;;;5.35;100.00
49611;BME280;35515;48.766;9.176;2023-12-20T08:51:59;98665.03;;;5.38;100.00
49611;BME280;35515;48.766;9.176;2023-12-20T08:54:25;98666.22;;;5.43;100.00
49611;BME280;35515;48.766;9.176;2023-12-20T08:56:53;98664.34;;;5.35;100.00
49611;BME280;35515;48.766;9.176;2023-12-20T08:59:20;98666.22;;;5.27;100.00
49611;BME280;35515;48.766;9.176;2023-12-20T09:01:46;98665.34;;;5.18;100.00
49611;BME280;35515;48.766;9.176;2023-12-20T09:04:13;98649.41;;;5.25;100.00
49611;BME280;35515;48.766;9.176;2023-12-20T09:06:40;98641.34;;;5.25;100.00
49611;BME280;35515;48.766;9.176;2023-12-20T09:09:06;98638.00;;;5.39;100.00
49611;BME280;35515;48.766;9.176;2023-12-20T09:11:35;98646.25;;;5.29;100.00
49611;BME280;35515;48.766;9.176;2023-12-20T09:14:03;98652.94;;;5.42;100.00
49611;BME280;35515;48.766;9.176;2023-12-20T09:16:29;98661.31;;;5.30;100.00
49611;BME280;35515;48.766;9.176;2023-12-20T09:18:56;98648.75;;;5.31;100.00
49611;BME280;35515;48.766;9.176;2023-12-20T09:21:23;98654.28;;;5.46;100.00
49611;BME280;35515;48.766;9.176;2023-12-20T09:23:49;98655.47;;;5.43;100.00
49611;BME280;35515;48.766;9.176;2023-12-20T09:26:16;98642.88;;;5.35;100.00
49611;BME280;35515;48.766;9.176;2023-12-20T09:28:43;98645.03;;;5.24;100.00
49611;BME280;35515;48.766;9.176;2023-12-20T09:31:11;98653.59;;;5.44;100.00
49611;BME280;35515;48.766;9.176;2023-12-20T09:33:38;98666.38;;;5.50;100.00
49611;BME280;35515;48.766;9.176;2023-12-20T09:36:05;98666.22;;;5.27;100.00
49611;BME280;35515;48.766;9.176;2023-12-20T09:38:32;98656.13;;;5.21;100.00
49611;BME280;35515;48.766;9.176;2023-12-20T09:40:58;98667.91;;;5.36;100.00
49611;BME280;35515;48.766;9.176;2023-12-20T09:43:26;98668.72;;;5.28;100.00
49611;BME280;35515;48.766;9.176;2023-12-20T09:46:00;98675.78;;;5.29;100.00
49611;BME280;35515;48.766;9.176;2023-12-20T09:48:29;98669.91;;;5.26;100.00
49611;BME280;35515;48.766;9.176;2023-12-20T09:50:56;98673.59;;;5.25;100.00
49611;BME280;35515;48.766;9.176;2023-12-20T09:53:24;98671.25;;;5.22;100.00
49611;BME280;35515;48.766;9.176;2023-12-20T09:55:55;98670.75;;;5.34;100.00
49611;BME280;35515;48.766;9.176;2023-12-20T09:58:23;98686.03;;;5.42;100.00
49611;BME280;35515;48.766;9.176;2023-12-20T10:00:50;98683.69;;;5.47;100.00
49611;BME280;35515;48.766;9.176;2023-12-20T10:03:19;98688.72;;;5.50;100.00
49611;BME280;35515;48.766;9.176;2023-12-20T10:05:52;98678.13;;;5.49;100.00
49611;BME280;35515;48.766;9.176;2023-12-20T10:08:21;98673.59;;;5.58;99.02
49611;BME280;35515;48.766;9.176;2023-12-20T10:10:48;98671.94;;;5.40;100.00
49611;BME280;35515;48.766;9.176;2023-12-20T10:13:15;98680.00;;;5.40;100.00
49611;BME280;35515;48.766;9.176;2023-12-20T10:15:41;98681.31;;;5.52;99.78
49611;BME280;35515;48.766;9.176;2023-12-20T10:18:08;98677.47;;;5.55;97.20
49611;BME280;35515;48.766;9.176;2023-12-20T10:20:34;98670.22;;;5.56;96.80
49611;BME280;35515;48.766;9.176;2023-12-20T10:23:02;98668.22;;;5.66;98.24
49611;BME280;35515;48.766;9.176;2023-12-20T10:25:30;98670.25;;;5.72;96.97
49611;BME280;35515;48.766;9.176;2023-12-20T10:28:13;98659.66;;;5.71;90.81
49611;BME280;35515;48.766;9.176;2023-12-20T10:30:42;98651.41;;;5.72;93.34
49611;BME280;35515;48.766;9.176;2023-12-20T10:33:09;98649.72;;;5.71;91.19
49611;BME280;35515;48.766;9.176;2023-12-20T10:35:37;98637.66;;;5.59;91.85
49611;BME280;35515;48.766;9.176;2023-12-20T10:38:06;98640.00;;;5.53;92.94
49611;BME280;35515;48.766;9.176;2023-12-20T10:40:35;98644.03;;;5.66;93.73
49611;BME280;35515;48.766;9.176;2023-12-20T10:43:03;98647.88;;;5.63;93.93
49611;BME280;35515;48.766;9.176;2023-12-20T10:45:30;98641.88;;;5.61;94.75
49611;BME280;35515;48.766;9.176;2023-12-20T10:47:57;98647.56;;;5.58;95.79
49611;BME280;35515;48.766;9.176;2023-12-20T10:50:25;98645.88;;;5.65;96.90
49611;BME280;35515;48.766;9.176;2023-12-20T10:52:53;98657.13;;;5.61;95.59
49611;BME280;35515;48.766;9.176;2023-12-20T10:55:22;98639.16;;;5.61;95.41
49611;BME280;35515;48.766;9.176;2023-12-20T10:57:49;98643.00;;;5.75;96.30
49611;BME280;35515;48.766;9.176;2023-12-20T11:00:18;98644.50;;;5.86;95.19
49611;BME280;35515;48.766;9.176;2023-12-20T11:02:45;98633.91;;;5.84;96.00
49611;BME280;35515;48.766;9.176;2023-12-20T11:05:23;98630.06;;;5.79;96.12
49611;BME280;35515;48.766;9.176;2023-12-20T11:07:56;98637.09;;;5.88;95.29
49611;BME280;35515;48.766;9.176;2023-12-20T11:10:30;98645.19;;;5.88;93.10
49611;BME280;35515;48.766;9.176;2023-12-20T11:13:00;98630.19;;;6.02;91.58
49611;BME280;35515;48.766;9.176;2023-12-20T11:15:30;98637.59;;;5.92;88.62
49611;BME280;35515;48.766;9.176;2023-12-20T11:17:58;98640.13;;;5.93;86.55
49611;BME280;35515;48.766;9.176;2023-12-20T11:20:35;98630.56;;;5.91;87.41
49611;BME280;35515;48.766;9.176;2023-12-20T11:23:02;98627.38;;;5.79;89.08
49611;BME280;35515;48.766;9.176;2023-12-20T11:25:45;98624.22;;;5.67;88.91
49611;BME280;35515;48.766;9.176;2023-12-20T11:28:12;98619.78;;;5.82;90.22
49611;BME280;35515;48.766;9.176;2023-12-20T11:30:45;98629.53;;;5.83;87.99
49611;BME280;35515;48.766;9.176;2023-12-20T11:33:13;98632.38;;;5.98;88.33
49611;BME280;35515;48.766;9.176;2023-12-20T11:35:39;98638.75;;;5.97;87.84
49611;BME280;35515;48.766;9.176;2023-12-20T11:38:08;98624.44;;;6.22;80.70
49611;BME280;35515;48.766;9.176;2023-12-20T11:40:36;98620.81;;;5.98;82.47
49611;BME280;35515;48.766;9.176;2023-12-20T11:43:03;98638.25;;;6.02;81.58
49611;BME280;35515;48.766;9.176;2023-12-20T11:45:30;98627.84;;;5.82;80.18
49611;BME280;35515;48.766;9.176;2023-12-20T11:47:57;98628.19;;;5.96;83.48
49611;BME280;35515;48.766;9.176;2023-12-20T11:50:24;98630.56;;;5.99;82.40
49611;BME280;35515;48.766;9.176;2023-12-20T11:52:52;98630.03;;;5.95;83.57
49611;BME280;35515;48.766;9.176;2023-12-20T11:55:19;98624.00;;;5.85;80.90
49611;BME280;35515;48.766;9.176;2023-12-20T11:57:47;98625.84;;;5.84;82.49
49611;BME280;35515;48.766;9.176;2023-12-20T12:00:15;98632.59;;;5.72;84.34
49611;BME280;35515;48.766;9.176;2023-12-20T12:02:41;98625.19;;;5.74;81.53
49611;BME280;35515;48.766;9.176;2023-12-20T12:05:08;98615.47;;;5.65;82.22
49611;BME280;35515;48.766;9.176;2023-12-20T12:07:35;98617.13;;;5.74;82.80
49611;BME280;35515;48.766;9.176;2023-12-20T12:10:01;98606.19;;;5.76;83.24
49611;BME280;35515;48.766;9.176;2023-12-20T12:12:29;98596.94;;;5.78;83.78
49611;BME280;35515;48.766;9.176;2023-12-20T12:14:57;98610.72;;;5.83;83.99
49611;BME280;35515;48.766;9.176;2023-12-20T12:17:24;98588.22;;;5.84;83.68
49611;BME280;35515;48.766;9.176;2023-12-20T12:19:51;98581.44;;;5.97;83.23
49611;BME280;35515;48.766;9.176;2023-12-20T12:22:27;98583.84;;;5.83;85.11
49611;BME280;35515;48.766;9.176;2023-12-20T12:24:54;98583.66;;;6.01;84.35
49611;BME280;35515;48.766;9.176;2023-12-20T12:27:20;98579.47;;;5.99;82.99
49611;BME280;35515;48.766;9.176;2023-12-20T12:30:01;98577.41;;;6.01;82.45
49611;BME280;35515;48.766;9.176;2023-12-20T12:32:29;98582.78;;;6.01;83.02
49611;BME280;35515;48.766;9.176;2023-12-20T12:34:55;98565.66;;;5.94;85.01
49611;BME280;35515;48.766;9.176;2023-12-20T12:37:22;98578.28;;;6.01;83.91
49611;BME280;35515;48.766;9.176;2023-12-20T12:39:50;98574.41;;;6.04;82.90
49611;BME280;35515;48.766;9.176;2023-12-20T12:42:16;98579.78;;;5.96;83.20
49611;BME280;35515;48.766;9.176;2023-12-20T12:44:43;98566.97;;;6.06;82.94
49611;BME280;35515;48.766;9.176;2023-12-20T12:47:11;98568.34;;;5.94;83.61
49611;BME280;35515;48.766;9.176;2023-12-20T12:49:37;98561.28;;;6.01;81.58
49611;BME280;35515;48.766;9.176;2023-12-20T12:52:05;98549.19;;;5.89;82.49
49611;BME280;35515;48.766;9.176;2023-12-20T12:54:32;98562.47;;;5.98;80.40
49611;BME280;35515;48.766;9.176;2023-12-20T12:56:58;98572.03;;;6.01;81.96
49611;BME280;35515;48.766;9.176;2023-12-20T12:59:25;98584.31;;;5.95;80.05
49611;BME280;35515;48.766;9.176;2023-12-20T13:01:52;98576.91;;;5.97;80.96